EZY42JP LFRB-EGKK
Flight info
| Callsign | EZY42JP |
|---|---|
| Flight time | 0h 52m |
| Altitude | 28000 |
| Route | NORBU DCT NOZHU/N0386F270 DCT OTMET |
| Aircraft | A320/M-SDE2E3FGHIJ1RWXYZ/LB1 |
Departure
| Time | 2026-04-22 17:28 |
|---|---|
| Airport | Brest Bretagne airport (LFRB) |
Arrival
| Time | 2026-04-22 18:20 |
|---|---|
| Airport | London Gatwick Airport (EGKK) |
| Time | Latitude | Longitude | Altitude | Speed | Heading |
|---|---|---|---|---|---|
| 2026-04-22 16:47 | 48.44423 | -4.42034 | 332 ft | 0 kts | 161° |
| 2026-04-22 17:20 | 48.44433 | -4.42039 | 327 ft | 4 kts | 164° |
| 2026-04-22 17:21 | 48.44459 | -4.42047 | 329 ft | 4 kts | 175° |
| 2026-04-22 17:21 | 48.44509 | -4.42031 | 329 ft | 4 kts | 236° |
| 2026-04-22 17:22 | 48.44513 | -4.42022 | 330 ft | 0 kts | 251° |
| 2026-04-22 17:24 | 48.44511 | -4.42031 | 332 ft | 4 kts | 251° |
| 2026-04-22 17:24 | 48.44538 | -4.42088 | 331 ft | 12 kts | 339° |
| 2026-04-22 17:24 | 48.44646 | -4.42141 | 330 ft | 20 kts | 342° |
| 2026-04-22 17:24 | 48.44677 | -4.42320 | 320 ft | 23 kts | 250° |
| 2026-04-22 17:25 | 48.44625 | -4.42560 | 311 ft | 27 kts | 252° |
| 2026-04-22 17:25 | 48.44555 | -4.42872 | 303 ft | 36 kts | 252° |
| 2026-04-22 17:25 | 48.44472 | -4.43239 | 301 ft | 37 kts | 252° |
| 2026-04-22 17:25 | 48.44390 | -4.43613 | 300 ft | 33 kts | 249° |
| 2026-04-22 17:26 | 48.44359 | -4.43803 | 297 ft | 10 kts | 186° |
| 2026-04-22 17:26 | 48.44360 | -4.43734 | 299 ft | 6 kts | 68° |
| 2026-04-22 17:26 | 48.44367 | -4.43700 | 301 ft | 0 kts | 73° |
| 2026-04-22 17:27 | 48.44402 | -4.43552 | 301 ft | 48 kts | 71° |
| 2026-04-22 17:27 | 48.44580 | -4.42756 | 306 ft | 110 kts | 71° |
| 2026-04-22 17:27 | 48.44880 | -4.41432 | 337 ft | 155 kts | 68° |
| 2026-04-22 17:27 | 48.45240 | -4.39796 | 701 ft | 170 kts | 71° |
| 2026-04-22 17:28 | 48.45605 | -4.38093 | 1494 ft | 171 kts | 73° |
| 2026-04-22 17:28 | 48.46192 | -4.36457 | 1932 ft | 193 kts | 48° |
| 2026-04-22 17:28 | 48.47369 | -4.35234 | 2355 ft | 219 kts | 31° |
| 2026-04-22 17:28 | 48.48860 | -4.34486 | 3035 ft | 233 kts | 15° |
| 2026-04-22 17:29 | 48.50523 | -4.34390 | 3682 ft | 248 kts | 358° |
| 2026-04-22 17:29 | 48.52256 | -4.34796 | 4393 ft | 254 kts | 355° |
| 2026-04-22 17:29 | 48.54017 | -4.35215 | 5182 ft | 258 kts | 354° |
| 2026-04-22 17:29 | 48.55798 | -4.35640 | 5927 ft | 261 kts | 354° |
| 2026-04-22 17:30 | 48.57583 | -4.36065 | 6651 ft | 265 kts | 353° |
| 2026-04-22 17:30 | 48.59418 | -4.36502 | 7341 ft | 269 kts | 353° |
| 2026-04-22 17:30 | 48.61331 | -4.36955 | 7817 ft | 287 kts | 352° |
| 2026-04-22 17:30 | 48.63325 | -4.37520 | 8520 ft | 295 kts | 345° |
| 2026-04-22 17:31 | 48.65313 | -4.38395 | 9319 ft | 299 kts | 343° |
| 2026-04-22 17:31 | 48.67323 | -4.39280 | 10132 ft | 303 kts | 343° |
| 2026-04-22 17:31 | 48.69385 | -4.40191 | 10585 ft | 319 kts | 343° |
| 2026-04-22 17:31 | 48.71609 | -4.41037 | 10861 ft | 340 kts | 351° |
| 2026-04-22 17:32 | 48.73996 | -4.41217 | 11451 ft | 347 kts | 3° |
| 2026-04-22 17:32 | 48.76395 | -4.40615 | 12164 ft | 352 kts | 16° |
| 2026-04-22 17:32 | 48.78686 | -4.39264 | 12873 ft | 355 kts | 24° |
| 2026-04-22 17:32 | 48.80952 | -4.37717 | 13604 ft | 359 kts | 24° |
| 2026-04-22 17:33 | 48.82464 | -4.36688 | 14065 ft | 361 kts | 24° |
| 2026-04-22 17:33 | 48.85554 | -4.34590 | 14912 ft | 365 kts | 23° |
| 2026-04-22 17:33 | 48.87883 | -4.33011 | 15546 ft | 368 kts | 23° |
| 2026-04-22 17:33 | 48.90232 | -4.31419 | 16168 ft | 371 kts | 23° |
| 2026-04-22 17:34 | 48.92601 | -4.29808 | 16783 ft | 374 kts | 23° |
| 2026-04-22 17:34 | 48.94986 | -4.28178 | 17406 ft | 377 kts | 22° |
| 2026-04-22 17:34 | 48.97389 | -4.26536 | 18020 ft | 381 kts | 22° |
| 2026-04-22 17:34 | 48.99815 | -4.24878 | 18592 ft | 384 kts | 22° |
| 2026-04-22 17:35 | 49.02262 | -4.23205 | 19106 ft | 387 kts | 22° |
| 2026-04-22 17:35 | 49.04734 | -4.21515 | 19621 ft | 390 kts | 22° |
| 2026-04-22 17:35 | 49.07221 | -4.19810 | 20149 ft | 393 kts | 22° |
| 2026-04-22 17:35 | 49.09692 | -4.18111 | 20668 ft | 396 kts | 22° |
| 2026-04-22 17:36 | 49.12216 | -4.16375 | 21185 ft | 400 kts | 22° |
| 2026-04-22 17:36 | 49.14758 | -4.14625 | 21705 ft | 403 kts | 22° |
| 2026-04-22 17:36 | 49.17321 | -4.12857 | 22236 ft | 405 kts | 21° |
| 2026-04-22 17:36 | 49.19903 | -4.11070 | 22759 ft | 408 kts | 21° |
| 2026-04-22 17:37 | 49.22495 | -4.09279 | 23280 ft | 411 kts | 21° |
| 2026-04-22 17:37 | 49.25115 | -4.07471 | 23765 ft | 414 kts | 21° |
| 2026-04-22 17:37 | 49.27753 | -4.05651 | 24175 ft | 417 kts | 21° |
| 2026-04-22 17:37 | 49.30402 | -4.03817 | 24576 ft | 419 kts | 21° |
| 2026-04-22 17:38 | 49.33065 | -4.01966 | 24976 ft | 422 kts | 21° |
| 2026-04-22 17:38 | 49.35750 | -4.00096 | 25359 ft | 425 kts | 21° |
| 2026-04-22 17:38 | 49.38447 | -3.98217 | 25751 ft | 427 kts | 21° |
| 2026-04-22 17:38 | 49.41159 | -3.96323 | 26107 ft | 430 kts | 21° |
| 2026-04-22 17:39 | 49.43889 | -3.94419 | 26462 ft | 432 kts | 21° |
| 2026-04-22 17:39 | 49.46636 | -3.92502 | 26825 ft | 434 kts | 21° |
| 2026-04-22 17:39 | 49.52163 | -3.88638 | 27521 ft | 439 kts | 21° |
| 2026-04-22 17:40 | 49.54952 | -3.86682 | 27865 ft | 442 kts | 21° |
| 2026-04-22 17:40 | 49.57755 | -3.84716 | 28129 ft | 443 kts | 22° |
| 2026-04-22 17:40 | 49.60533 | -3.82766 | 28176 ft | 431 kts | 21° |
| 2026-04-22 17:40 | 49.63216 | -3.80878 | 28182 ft | 420 kts | 21° |
| 2026-04-22 17:41 | 49.65862 | -3.79011 | 28180 ft | 416 kts | 22° |
| 2026-04-22 17:41 | 49.70925 | -3.74707 | 28191 ft | 418 kts | 36° |
| 2026-04-22 17:42 | 49.75476 | -3.69085 | 28192 ft | 418 kts | 37° |
| 2026-04-22 17:42 | 49.80012 | -3.63460 | 28196 ft | 418 kts | 37° |
| 2026-04-22 17:43 | 49.84518 | -3.57868 | 28191 ft | 418 kts | 37° |
| 2026-04-22 17:43 | 49.89045 | -3.52236 | 28201 ft | 417 kts | 37° |
| 2026-04-22 17:44 | 49.93561 | -3.46600 | 28198 ft | 416 kts | 37° |
| 2026-04-22 17:44 | 49.98063 | -3.40953 | 28212 ft | 416 kts | 37° |
| 2026-04-22 17:45 | 50.02560 | -3.35328 | 28214 ft | 415 kts | 37° |
| 2026-04-22 17:45 | 50.07053 | -3.29705 | 28216 ft | 414 kts | 37° |
| 2026-04-22 17:46 | 50.11525 | -3.24071 | 28217 ft | 413 kts | 37° |
| 2026-04-22 17:46 | 50.15992 | -3.18433 | 28224 ft | 413 kts | 37° |
| 2026-04-22 17:47 | 50.20450 | -3.12790 | 28226 ft | 412 kts | 37° |
| 2026-04-22 17:47 | 50.24893 | -3.07148 | 28231 ft | 412 kts | 37° |
| 2026-04-22 17:48 | 50.28587 | -3.02459 | 28231 ft | 411 kts | 37° |
| 2026-04-22 17:48 | 50.33747 | -2.95895 | 28232 ft | 411 kts | 37° |
| 2026-04-22 17:49 | 50.38174 | -2.90235 | 28231 ft | 411 kts | 37° |
| 2026-04-22 17:49 | 50.42595 | -2.84555 | 28234 ft | 411 kts | 37° |
| 2026-04-22 17:50 | 50.47014 | -2.78879 | 28237 ft | 411 kts | 37° |
| 2026-04-22 17:50 | 50.51442 | -2.73195 | 28242 ft | 411 kts | 37° |
| 2026-04-22 17:51 | 50.55859 | -2.67496 | 28241 ft | 411 kts | 37° |
| 2026-04-22 17:51 | 50.60270 | -2.61786 | 28253 ft | 410 kts | 37° |
| 2026-04-22 17:52 | 50.64607 | -2.55912 | 28259 ft | 420 kts | 46° |
| 2026-04-22 17:52 | 50.66303 | -2.52142 | 28254 ft | 422 kts | 62° |
| 2026-04-22 17:52 | 50.67275 | -2.47809 | 28257 ft | 419 kts | 78° |
| 2026-04-22 17:53 | 50.68110 | -2.38804 | 27940 ft | 408 kts | 81° |
| 2026-04-22 17:53 | 50.68487 | -2.34414 | 27671 ft | 401 kts | 81° |
| 2026-04-22 17:53 | 50.68835 | -2.30332 | 27427 ft | 397 kts | 81° |
| 2026-04-22 17:53 | 50.69202 | -2.26031 | 27169 ft | 394 kts | 81° |
| 2026-04-22 17:54 | 50.69564 | -2.21755 | 26902 ft | 393 kts | 81° |
| 2026-04-22 17:54 | 50.69920 | -2.17556 | 26643 ft | 391 kts | 81° |
| 2026-04-22 17:54 | 50.70279 | -2.13330 | 26413 ft | 388 kts | 81° |
| 2026-04-22 17:54 | 50.70634 | -2.09118 | 26164 ft | 386 kts | 81° |
| 2026-04-22 17:55 | 50.70871 | -2.06286 | 25993 ft | 384 kts | 81° |
| 2026-04-22 17:55 | 50.71331 | -2.00783 | 25669 ft | 381 kts | 81° |
| 2026-04-22 17:55 | 50.71677 | -1.96652 | 25425 ft | 379 kts | 81° |
| 2026-04-22 17:55 | 50.72020 | -1.92545 | 25183 ft | 376 kts | 81° |
| 2026-04-22 17:56 | 50.72359 | -1.88459 | 24943 ft | 374 kts | 81° |
| 2026-04-22 17:56 | 50.72693 | -1.84405 | 24705 ft | 372 kts | 81° |
| 2026-04-22 17:56 | 50.73025 | -1.80372 | 24469 ft | 369 kts | 81° |
| 2026-04-22 17:56 | 50.73355 | -1.76369 | 24237 ft | 367 kts | 81° |
| 2026-04-22 17:57 | 50.73681 | -1.72386 | 23999 ft | 364 kts | 82° |
| 2026-04-22 17:57 | 50.73998 | -1.68443 | 23571 ft | 361 kts | 82° |
| 2026-04-22 17:57 | 50.74311 | -1.64521 | 23124 ft | 358 kts | 82° |
| 2026-04-22 17:57 | 50.74620 | -1.60636 | 22683 ft | 356 kts | 82° |
| 2026-04-22 17:58 | 50.74926 | -1.56771 | 22241 ft | 354 kts | 82° |
| 2026-04-22 17:58 | 50.75233 | -1.52930 | 21819 ft | 352 kts | 81° |
| 2026-04-22 17:58 | 50.75539 | -1.49107 | 21390 ft | 350 kts | 82° |
| 2026-04-22 17:58 | 50.75838 | -1.45306 | 20969 ft | 348 kts | 82° |
| 2026-04-22 17:59 | 50.76136 | -1.41523 | 20544 ft | 347 kts | 82° |
| 2026-04-22 17:59 | 50.76429 | -1.37798 | 20126 ft | 345 kts | 82° |
| 2026-04-22 17:59 | 50.76721 | -1.34042 | 19711 ft | 344 kts | 82° |
| 2026-04-22 17:59 | 50.77010 | -1.30291 | 19292 ft | 344 kts | 82° |
| 2026-04-22 18:00 | 50.77204 | -1.27765 | 19007 ft | 343 kts | 82° |
| 2026-04-22 18:00 | 50.77584 | -1.22821 | 18444 ft | 342 kts | 82° |
| 2026-04-22 18:00 | 50.77867 | -1.19093 | 18006 ft | 340 kts | 82° |
| 2026-04-22 18:00 | 50.78149 | -1.15395 | 17598 ft | 338 kts | 82° |
| 2026-04-22 18:01 | 50.78432 | -1.11720 | 17193 ft | 336 kts | 82° |
| 2026-04-22 18:01 | 50.78710 | -1.08073 | 16803 ft | 333 kts | 83° |
| 2026-04-22 18:01 | 50.78981 | -1.04447 | 16404 ft | 331 kts | 83° |
| 2026-04-22 18:01 | 50.79248 | -1.00850 | 16023 ft | 329 kts | 83° |
| 2026-04-22 18:02 | 50.79515 | -0.97259 | 15642 ft | 328 kts | 83° |
| 2026-04-22 18:02 | 50.79780 | -0.93697 | 15258 ft | 326 kts | 84° |
| 2026-04-22 18:02 | 50.80042 | -0.90154 | 14873 ft | 324 kts | 84° |
| 2026-04-22 18:02 | 50.80303 | -0.86633 | 14501 ft | 321 kts | 84° |
| 2026-04-22 18:03 | 50.80558 | -0.83142 | 14142 ft | 319 kts | 85° |
| 2026-04-22 18:03 | 50.80809 | -0.79684 | 13812 ft | 314 kts | 85° |
| 2026-04-22 18:03 | 50.81059 | -0.76254 | 13373 ft | 313 kts | 85° |
| 2026-04-22 18:03 | 50.81353 | -0.72895 | 13264 ft | 302 kts | 82° |
| 2026-04-22 18:04 | 50.81713 | -0.69696 | 13290 ft | 292 kts | 81° |
| 2026-04-22 18:04 | 50.82096 | -0.66566 | 13006 ft | 290 kts | 81° |
| 2026-04-22 18:04 | 50.82484 | -0.63426 | 12597 ft | 290 kts | 81° |
| 2026-04-22 18:04 | 50.82867 | -0.60306 | 12249 ft | 288 kts | 81° |
| 2026-04-22 18:05 | 50.83201 | -0.57534 | 11959 ft | 286 kts | 82° |
| 2026-04-22 18:05 | 50.83581 | -0.54339 | 11679 ft | 282 kts | 82° |
| 2026-04-22 18:05 | 50.83937 | -0.51299 | 11446 ft | 280 kts | 82° |
| 2026-04-22 18:05 | 50.84287 | -0.48273 | 11213 ft | 279 kts | 82° |
| 2026-04-22 18:06 | 50.84633 | -0.45262 | 10990 ft | 278 kts | 82° |
| 2026-04-22 18:06 | 50.84972 | -0.42297 | 10764 ft | 277 kts | 82° |
| 2026-04-22 18:06 | 50.85317 | -0.39264 | 10536 ft | 276 kts | 82° |
| 2026-04-22 18:06 | 50.85652 | -0.36327 | 10311 ft | 275 kts | 82° |
| 2026-04-22 18:07 | 50.85880 | -0.34318 | 10153 ft | 274 kts | 82° |
| 2026-04-22 18:07 | 50.86328 | -0.30387 | 9842 ft | 273 kts | 83° |
| 2026-04-22 18:07 | 50.86663 | -0.27428 | 9616 ft | 272 kts | 83° |
| 2026-04-22 18:07 | 50.86993 | -0.24500 | 9394 ft | 271 kts | 83° |
| 2026-04-22 18:08 | 50.87323 | -0.21566 | 9169 ft | 270 kts | 83° |
| 2026-04-22 18:08 | 50.87648 | -0.18644 | 8944 ft | 269 kts | 83° |
| 2026-04-22 18:08 | 50.87861 | -0.16728 | 8826 ft | 264 kts | 83° |
| 2026-04-22 18:08 | 50.88175 | -0.13930 | 8688 ft | 253 kts | 83° |
| 2026-04-22 18:09 | 50.88477 | -0.11251 | 8552 ft | 242 kts | 83° |
| 2026-04-22 18:09 | 50.88773 | -0.08670 | 8317 ft | 236 kts | 80° |
| 2026-04-22 18:09 | 50.89443 | -0.06316 | 8206 ft | 239 kts | 56° |
| 2026-04-22 18:09 | 50.90725 | -0.04596 | 8076 ft | 247 kts | 31° |
| 2026-04-22 18:10 | 50.92398 | -0.03865 | 7948 ft | 255 kts | 5° |
| 2026-04-22 18:10 | 50.94142 | -0.04365 | 7828 ft | 262 kts | 337° |
| 2026-04-22 18:10 | 50.95299 | -0.05569 | 7734 ft | 265 kts | 316° |
| 2026-04-22 18:10 | 50.96015 | -0.06928 | 7652 ft | 278 kts | 305° |
| 2026-04-22 18:11 | 50.97206 | -0.09385 | 7523 ft | 288 kts | 307° |
| 2026-04-22 18:11 | 50.98048 | -0.12154 | 7414 ft | 274 kts | 280° |
| 2026-04-22 18:11 | 50.98262 | -0.15087 | 7313 ft | 263 kts | 272° |
| 2026-04-22 18:11 | 50.98430 | -0.17973 | 7326 ft | 263 kts | 273° |
| 2026-04-22 18:12 | 50.98605 | -0.20858 | 6995 ft | 267 kts | 273° |
| 2026-04-22 18:12 | 50.98789 | -0.23881 | 6211 ft | 283 kts | 273° |
| 2026-04-22 18:12 | 50.98977 | -0.27026 | 5698 ft | 287 kts | 273° |
| 2026-04-22 18:12 | 50.99166 | -0.30180 | 5276 ft | 287 kts | 273° |
| 2026-04-22 18:13 | 50.99358 | -0.33323 | 4860 ft | 286 kts | 275° |
| 2026-04-22 18:13 | 50.99951 | -0.36294 | 4557 ft | 280 kts | 303° |
| 2026-04-22 18:13 | 51.01207 | -0.38542 | 4448 ft | 266 kts | 319° |
| 2026-04-22 18:13 | 51.02553 | -0.40458 | 4295 ft | 255 kts | 321° |
| 2026-04-22 18:14 | 51.03873 | -0.42300 | 4092 ft | 248 kts | 321° |
| 2026-04-22 18:14 | 51.05146 | -0.44077 | 3956 ft | 239 kts | 321° |
| 2026-04-22 18:14 | 51.06355 | -0.45779 | 3823 ft | 224 kts | 321° |
| 2026-04-22 18:14 | 51.07357 | -0.47204 | 3753 ft | 213 kts | 321° |
| 2026-04-22 18:15 | 51.08447 | -0.48750 | 3531 ft | 208 kts | 325° |
| 2026-04-22 18:15 | 51.09720 | -0.49620 | 3229 ft | 194 kts | 7° |
| 2026-04-22 18:15 | 51.10837 | -0.48861 | 3039 ft | 170 kts | 55° |
| 2026-04-22 18:15 | 51.11493 | -0.47324 | 3001 ft | 166 kts | 73° |
| 2026-04-22 18:16 | 51.11671 | -0.45556 | 3012 ft | 162 kts | 89° |
| 2026-04-22 18:16 | 51.11691 | -0.43775 | 3008 ft | 159 kts | 92° |
| 2026-04-22 18:16 | 51.11700 | -0.42086 | 2960 ft | 149 kts | 86° |
| 2026-04-22 18:16 | 51.11868 | -0.40480 | 2767 ft | 144 kts | 83° |
| 2026-04-22 18:17 | 51.12065 | -0.38924 | 2584 ft | 142 kts | 82° |
| 2026-04-22 18:17 | 51.12267 | -0.37409 | 2400 ft | 141 kts | 81° |
| 2026-04-22 18:17 | 51.12475 | -0.35889 | 2213 ft | 140 kts | 80° |
| 2026-04-22 18:17 | 51.12681 | -0.34400 | 2025 ft | 136 kts | 79° |
| 2026-04-22 18:18 | 51.12886 | -0.32919 | 1836 ft | 137 kts | 78° |
| 2026-04-22 18:18 | 51.13093 | -0.31434 | 1637 ft | 138 kts | 78° |
| 2026-04-22 18:18 | 51.13300 | -0.29941 | 1439 ft | 139 kts | 78° |
| 2026-04-22 18:18 | 51.13509 | -0.28444 | 1230 ft | 138 kts | 78° |
| 2026-04-22 18:19 | 51.13709 | -0.27006 | 1040 ft | 129 kts | 77° |
| 2026-04-22 18:19 | 51.13895 | -0.25662 | 859 ft | 127 kts | 77° |
| 2026-04-22 18:19 | 51.14085 | -0.24292 | 696 ft | 126 kts | 76° |
| 2026-04-22 18:19 | 51.14273 | -0.22937 | 491 ft | 124 kts | 76° |
| 2026-04-22 18:20 | 51.14458 | -0.21599 | 352 ft | 125 kts | 77° |
| 2026-04-22 18:20 | 51.14641 | -0.20258 | 222 ft | 122 kts | 76° |
| 2026-04-22 18:20 | 51.14803 | -0.19117 | 212 ft | 84 kts | 78° |
| 2026-04-22 18:20 | 51.14891 | -0.18472 | 205 ft | 37 kts | 78° |
| 2026-04-22 18:21 | 51.14944 | -0.18111 | 212 ft | 31 kts | 76° |
| 2026-04-22 18:21 | 51.15039 | -0.17829 | 209 ft | 22 kts | 53° |
| 2026-04-22 18:21 | 51.15098 | -0.17752 | 208 ft | 9 kts | 3° |
| 2026-04-22 18:21 | 51.15121 | -0.17756 | 204 ft | 0 kts | 351° |
| 2026-04-22 18:23 | 51.15132 | -0.17758 | 212 ft | 6 kts | 351° |
| 2026-04-22 18:23 | 51.15217 | -0.17779 | 203 ft | 19 kts | 351° |
| 2026-04-22 18:24 | 51.15226 | -0.18080 | 202 ft | 13 kts | 307° |
| 2026-04-22 18:24 | 51.15305 | -0.18117 | 210 ft | 12 kts | 348° |
| 2026-04-22 18:24 | 51.15479 | -0.18183 | 202 ft | 14 kts | 343° |
| 2026-04-22 18:25 | 51.15579 | -0.18221 | 202 ft | 16 kts | 348° |
| 2026-04-22 18:25 | 51.15675 | -0.18203 | 211 ft | 14 kts | 33° |
| 2026-04-22 18:25 | 51.15758 | -0.18121 | 202 ft | 15 kts | 50° |
| 2026-04-22 18:26 | 51.15964 | -0.18121 | 205 ft | 18 kts | 348° |
| 2026-04-22 18:26 | 51.16048 | -0.18131 | 206 ft | 7 kts | 37° |
| 2026-04-22 18:26 | 51.16052 | -0.18054 | 202 ft | 8 kts | 90° |
| 2026-04-22 18:26 | 51.16057 | -0.18006 | 202 ft | 0 kts | 78° |